createdAt,value
2019-05-07T00:01:02.706Z,70.78
2019-05-07T00:03:09.275Z,71.02
2019-05-07T00:05:16.148Z,71.20
2019-05-07T00:07:23.637Z,71.65
2019-05-07T00:09:32.146Z,72.12
2019-05-07T00:11:38.014Z,72.38
2019-05-07T00:13:44.631Z,72.55
2019-05-07T00:15:52.826Z,72.68
2019-05-07T00:17:59.131Z,72.80
2019-05-07T00:20:09.282Z,73.07
2019-05-07T00:22:15.647Z,73.07
2019-05-07T00:24:23.455Z,73.19
2019-05-07T00:26:32.058Z,73.49
2019-05-07T00:28:39.534Z,73.76
2019-05-07T00:30:45.918Z,73.96
2019-05-07T00:32:53.720Z,74.13
2019-05-07T00:35:04.679Z,74.35
2019-05-07T00:37:18.927Z,75.12
2019-05-07T00:39:42.499Z,75.34
2019-05-07T00:41:57.964Z,75.51
2019-05-07T00:44:06.294Z,75.70
2019-05-07T00:46:14.180Z,75.76
2019-05-07T00:48:23.469Z,75.96
2019-05-07T00:50:34.662Z,76.29
2019-05-07T00:52:43.007Z,76.32
2019-05-07T00:54:50.470Z,76.40
2019-05-07T00:56:56.927Z,76.48
2019-05-07T00:59:03.412Z,76.64
2019-05-07T01:01:10.281Z,76.97
2019-05-07T01:03:16.741Z,77.02
2019-05-07T01:05:23.258Z,77.12
2019-05-07T01:07:29.780Z,77.29
2019-05-07T01:09:36.131Z,77.52
2019-05-07T01:11:43.010Z,77.53
2019-05-07T01:13:49.368Z,77.88
2019-05-07T01:15:57.384Z,77.97
2019-05-07T01:18:03.734Z,77.92
2019-05-07T01:20:12.428Z,77.96
2019-05-07T01:22:18.629Z,78.03
2019-05-07T01:24:24.869Z,77.51
2019-05-07T01:26:33.101Z,77.26
2019-05-07T01:28:58.083Z,76.96
2019-05-07T01:31:04.758Z,76.54
2019-05-07T01:33:12.752Z,76.04
2019-05-07T01:35:23.519Z,76.07
2019-05-07T01:37:32.052Z,75.73
2019-05-07T01:39:38.081Z,75.43
2019-05-07T01:41:45.985Z,75.25
2019-05-07T01:43:52.661Z,75.40
2019-05-07T01:45:59.029Z,75.29
2019-05-07T01:48:05.882Z,75.37
2019-05-07T01:50:13.354Z,75.14
2019-05-07T01:52:19.728Z,75.12
2019-05-07T01:54:26.218Z,75.14
2019-05-07T01:56:33.153Z,75.44
2019-05-07T01:58:42.337Z,75.41
2019-05-07T02:00:48.058Z,75.46
2019-05-07T02:02:58.924Z,75.66
2019-05-07T02:05:26.295Z,75.86
2019-05-07T02:07:34.387Z,76.13
2019-05-07T02:09:48.735Z,76.09
2019-05-07T02:12:02.441Z,76.37
2019-05-07T02:14:08.538Z,76.72
2019-05-07T02:16:14.890Z,78.07
2019-05-07T02:18:21.821Z,77.63
2019-05-07T02:20:28.232Z,77.77
2019-05-07T02:22:34.603Z,77.50
2019-05-07T02:24:43.374Z,77.37
2019-05-07T02:26:52.021Z,77.29
2019-05-07T02:28:57.906Z,77.77
2019-05-07T02:31:05.177Z,77.64
2019-05-07T02:33:13.760Z,77.80
2019-05-07T02:35:19.950Z,77.83
2019-05-07T02:37:35.769Z,78.07
2019-05-07T02:39:40.441Z,78.19
2019-05-07T02:41:54.239Z,78.04
2019-05-07T02:44:03.184Z,78.05
2019-05-07T02:46:22.521Z,78.10
2019-05-07T02:48:23.663Z,79.26
2019-05-07T02:50:33.008Z,79.43
2019-05-07T02:52:58.755Z,79.38
2019-05-07T02:55:13.158Z,79.95
2019-05-07T02:57:24.079Z,79.86
2019-05-07T02:59:33.528Z,80.03
2019-05-07T03:01:42.998Z,80.21
2019-05-07T03:03:52.650Z,80.28
2019-05-07T03:06:02.893Z,80.47
2019-05-07T03:08:13.244Z,80.01
2019-05-07T03:10:23.746Z,80.31
2019-05-07T03:12:33.476Z,80.87
2019-05-07T03:14:38.938Z,81.03
2019-05-07T03:16:49.366Z,81.27
2019-05-07T03:18:56.900Z,81.63
2019-05-07T03:21:16.997Z,82.04
2019-05-07T03:23:28.486Z,82.15
2019-05-07T03:25:54.157Z,82.09
2019-05-07T03:28:00.440Z,82.14
2019-05-07T03:30:17.329Z,82.07
2019-05-07T03:32:27.328Z,82.54
2019-05-07T03:34:46.543Z,82.77
2019-05-07T03:36:56.541Z,83.25
2019-05-07T03:39:03.302Z,83.44
2019-05-07T03:41:09.305Z,81.94
2019-05-07T03:43:15.812Z,81.65
2019-05-07T03:45:26.669Z,81.77
2019-05-07T03:47:34.883Z,81.94
2019-05-07T03:49:42.977Z,81.95
2019-05-07T03:51:52.881Z,80.88
2019-05-07T03:53:58.257Z,75.35
2019-05-07T03:56:04.944Z,68.22
2019-05-07T03:58:14.564Z,63.05
2019-05-07T04:00:23.932Z,59.63
2019-05-07T04:02:32.891Z,56.27
2019-05-07T04:04:37.766Z,54.97
2019-05-07T04:06:44.717Z,53.81
2019-05-07T04:08:53.146Z,52.38
2019-05-07T04:10:59.182Z,51.57
2019-05-07T04:13:06.070Z,50.44
2019-05-07T04:15:14.140Z,49.25
2019-05-07T04:17:25.613Z,49.39
2019-05-07T04:19:28.934Z,47.48
2019-05-07T04:21:35.335Z,47.95
2019-05-07T04:23:43.639Z,46.56
2019-05-07T04:25:54.698Z,46.25
2019-05-07T04:28:18.648Z,45.22
2019-05-07T04:30:25.621Z,44.84
2019-05-07T04:32:33.619Z,44.12
2019-05-07T04:34:59.062Z,44.45
2019-05-07T04:37:06.899Z,44.44
2019-05-07T04:39:13.541Z,44.68
2019-05-07T04:41:23.012Z,45.09
2019-05-07T04:43:27.893Z,42.96
2019-05-07T04:45:34.426Z,45.64
2019-05-07T04:47:44.313Z,48.78
2019-05-07T04:49:49.417Z,52.09
2019-05-07T04:51:57.336Z,55.44
2019-05-07T04:54:04.175Z,58.05
2019-05-07T04:56:13.847Z,60.61
2019-05-07T04:58:23.322Z,62.18
2019-05-07T05:00:28.907Z,64.59
2019-05-07T05:02:34.975Z,65.94
2019-05-07T05:04:43.656Z,67.26
2019-05-07T05:06:52.854Z,66.41
2019-05-07T05:08:59.109Z,66.67
2019-05-07T05:11:05.530Z,67.07
2019-05-07T05:13:12.888Z,67.81
2019-05-07T05:15:22.178Z,67.01
2019-05-07T05:17:28.916Z,67.46
2019-05-07T05:19:35.174Z,67.59
2019-05-07T05:21:43.196Z,67.75
2019-05-07T05:23:54.449Z,67.62
2019-05-07T05:26:01.953Z,68.68
2019-05-07T05:28:12.378Z,68.07
2019-05-07T05:30:22.013Z,68.12
2019-05-07T05:32:28.596Z,68.55
2019-05-07T05:34:34.993Z,68.54
2019-05-07T05:36:42.514Z,68.23
2019-05-07T05:38:49.248Z,68.29
2019-05-07T05:40:57.453Z,68.41
2019-05-07T05:43:06.937Z,68.31
2019-05-07T05:45:33.352Z,68.21
2019-05-07T05:47:42.824Z,68.53
2019-05-07T05:49:47.676Z,68.68
2019-05-07T05:52:04.093Z,69.36
2019-05-07T05:54:28.265Z,68.19
2019-05-07T05:56:42.702Z,68.85
2019-05-07T05:59:06.804Z,67.92
2019-05-07T06:01:16.432Z,67.82
2019-05-07T06:03:43.058Z,67.67
2019-05-07T06:05:52.259Z,67.30
2019-05-07T06:08:05.929Z,67.89
2019-05-07T06:10:23.577Z,67.12
2019-05-07T06:12:42.852Z,66.75
2019-05-07T06:14:57.062Z,66.85
2019-05-07T06:17:22.376Z,66.16
2019-05-07T06:19:33.366Z,65.99
2019-05-07T06:21:59.289Z,65.77
2019-05-07T06:24:07.166Z,66.36
2019-05-07T06:26:14.756Z,65.47
2019-05-07T06:28:22.342Z,65.27
2019-05-07T06:30:28.911Z,65.90
2019-05-07T06:32:36.616Z,65.20
2019-05-07T06:34:44.727Z,64.37
2019-05-07T06:36:52.668Z,64.11
2019-05-07T06:39:01.935Z,63.58
2019-05-07T06:41:17.436Z,62.53
2019-05-07T06:43:25.636Z,61.82
2019-05-07T06:45:35.424Z,61.20
2019-05-07T06:47:43.149Z,61.37
2019-05-07T06:49:52.321Z,60.05
2019-05-07T06:51:58.877Z,60.39
2019-05-07T06:54:05.328Z,60.58
2019-05-07T06:56:12.205Z,60.79
2019-05-07T06:58:18.570Z,59.56
2019-05-07T07:00:26.988Z,58.28
2019-05-07T07:02:44.387Z,58.12
2019-05-07T07:04:52.304Z,58.05
2019-05-07T07:07:01.925Z,57.83
2019-05-07T07:09:22.092Z,56.82
2019-05-07T07:11:32.342Z,56.82
2019-05-07T07:13:39.117Z,55.89
2019-05-07T07:15:45.511Z,56.33
2019-05-07T07:17:52.393Z,54.50
2019-05-07T07:19:58.947Z,54.14
2019-05-07T07:22:05.328Z,51.86
2019-05-07T07:24:12.701Z,51.97
2019-05-07T07:26:19.163Z,51.98
2019-05-07T07:28:25.528Z,51.59
2019-05-07T07:30:33.546Z,51.85
2019-05-07T07:32:42.769Z,51.38
2019-05-07T07:34:53.085Z,52.20
2019-05-07T07:37:12.842Z,49.66
2019-05-07T07:39:18.990Z,50.62
2019-05-07T07:41:28.351Z,49.10
2019-05-07T07:43:34.665Z,48.14
2019-05-07T07:45:42.016Z,48.02
2019-05-07T07:47:49.409Z,48.22
2019-05-07T07:49:56.018Z,47.31
2019-05-07T07:52:03.282Z,48.13
2019-05-07T07:54:09.752Z,47.64
2019-05-07T07:56:23.706Z,46.34
2019-05-07T07:58:34.161Z,45.17
2019-05-07T08:00:54.286Z,45.81
2019-05-07T08:03:02.486Z,44.92
2019-05-07T08:05:12.575Z,44.79
2019-05-07T08:07:19.183Z,44.29
2019-05-07T08:09:25.959Z,41.91
2019-05-07T08:11:32.592Z,43.47
2019-05-07T08:13:39.024Z,43.78
2019-05-07T08:15:46.663Z,43.55
2019-05-07T08:17:53.253Z,43.95
2019-05-07T08:19:59.765Z,43.40
2019-05-07T08:22:06.730Z,43.35
2019-05-07T08:24:13.370Z,42.51
2019-05-07T08:26:21.886Z,43.13
2019-05-07T08:28:28.643Z,43.09
2019-05-07T08:30:35.522Z,43.02
2019-05-07T08:32:44.051Z,43.35
2019-05-07T08:35:07.582Z,41.52
2019-05-07T08:37:14.633Z,41.82
2019-05-07T08:39:25.110Z,42.38
2019-05-07T08:41:31.958Z,40.89
2019-05-07T08:43:39.303Z,40.53
2019-05-07T08:46:03.831Z,39.23
2019-05-07T08:48:13.403Z,39.28
2019-05-07T08:50:19.864Z,38.97
2019-05-07T08:52:26.610Z,39.58
2019-05-07T08:54:34.663Z,39.77
2019-05-07T08:56:44.411Z,39.23
2019-05-07T08:58:52.630Z,38.43
2019-05-07T09:00:59.622Z,38.72
2019-05-07T09:03:19.123Z,39.31
2019-05-07T09:05:14.642Z,39.08
2019-05-07T09:07:21.982Z,38.33
2019-05-07T09:09:29.572Z,35.90
2019-05-07T09:11:36.162Z,37.96
2019-05-07T09:13:42.867Z,39.44
2019-05-07T09:15:49.314Z,38.94
2019-05-07T09:17:56.274Z,36.69
2019-05-07T09:20:03.528Z,36.63
2019-05-07T09:22:12.523Z,37.25
2019-05-07T09:24:18.332Z,36.78
2019-05-07T09:26:26.479Z,36.41
2019-05-07T09:28:34.882Z,36.27
2019-05-07T09:30:52.495Z,35.31
2019-05-07T09:33:02.475Z,35.18
2019-05-07T09:35:12.480Z,36.38
2019-05-07T09:37:32.763Z,36.36
2019-05-07T09:39:39.342Z,36.15
2019-05-07T09:41:46.263Z,33.40
2019-05-07T09:43:52.783Z,32.62
2019-05-07T09:45:59.262Z,33.41
2019-05-07T09:48:06.482Z,31.94
2019-05-07T09:50:13.826Z,32.55
2019-05-07T09:52:22.682Z,32.75
2019-05-07T09:54:29.122Z,33.23
2019-05-07T09:56:37.102Z,33.33
2019-05-07T09:58:44.081Z,35.13
2019-05-07T10:00:52.303Z,34.88
2019-05-07T10:02:58.888Z,35.11
2019-05-07T10:05:07.082Z,33.62
2019-05-07T10:07:15.482Z,31.67
2019-05-07T10:09:22.360Z,30.38
2019-05-07T10:11:47.329Z,30.06
2019-05-07T10:14:04.268Z,31.38
2019-05-07T10:16:12.767Z,32.08
2019-05-07T10:18:20.118Z,31.25
2019-05-07T10:20:27.965Z,30.75
2019-05-07T10:22:34.334Z,31.94
2019-05-07T10:24:42.904Z,32.28
2019-05-07T10:26:50.093Z,31.80
2019-05-07T10:29:04.326Z,28.75
2019-05-07T10:31:11.041Z,27.97
2019-05-07T10:33:18.062Z,27.50
2019-05-07T10:35:26.194Z,28.16
2019-05-07T10:37:35.323Z,29.16
2019-05-07T10:39:43.041Z,29.89
2019-05-07T10:41:49.850Z,28.97
2019-05-07T10:43:58.089Z,30.01
2019-05-07T10:46:24.384Z,29.66
2019-05-07T10:48:37.203Z,26.85
2019-05-07T10:50:45.882Z,27.06
2019-05-07T10:52:53.182Z,28.57
2019-05-07T10:55:00.034Z,28.72
2019-05-07T10:57:07.603Z,28.38
2019-05-07T10:59:14.008Z,28.20
2019-05-07T11:01:22.470Z,27.98
2019-05-07T11:03:29.272Z,28.18
2019-05-07T11:05:36.139Z,27.80
2019-05-07T11:07:43.070Z,28.55
2019-05-07T11:09:52.492Z,27.49
2019-05-07T11:11:59.262Z,27.97
2019-05-07T11:14:05.961Z,27.50
2019-05-07T11:16:14.162Z,27.94
2019-05-07T11:18:22.242Z,28.37
2019-05-07T11:20:28.722Z,28.67
2019-05-07T11:22:36.687Z,27.98
2019-05-07T11:24:43.150Z,26.80
2019-05-07T11:26:49.562Z,25.03
2019-05-07T11:28:56.082Z,24.09
2019-05-07T11:31:02.504Z,23.10
2019-05-07T11:33:08.778Z,25.10
2019-05-07T11:35:15.484Z,26.08
2019-05-07T11:37:23.547Z,26.21
2019-05-07T11:39:29.911Z,26.87
2019-05-07T11:41:37.842Z,26.35
2019-05-07T11:43:45.402Z,25.88
2019-05-07T11:45:58.838Z,25.11
2019-05-07T11:48:04.598Z,26.96
2019-05-07T11:50:14.376Z,25.79
2019-05-07T11:52:22.747Z,25.86
2019-05-07T11:54:32.022Z,25.79
2019-05-07T11:56:42.250Z,25.85
2019-05-07T11:58:50.725Z,25.97
2019-05-07T12:01:04.903Z,23.38
2019-05-07T12:03:11.372Z,23.91
2019-05-07T12:05:19.403Z,24.71
2019-05-07T12:07:25.805Z,25.16
2019-05-07T12:09:33.321Z,24.95
2019-05-07T12:11:40.003Z,24.70
2019-05-07T12:13:46.682Z,24.65
2019-05-07T12:15:53.342Z,24.45
2019-05-07T12:18:02.773Z,22.45
2019-05-07T12:20:09.022Z,23.21
2019-05-07T12:22:17.222Z,24.33
2019-05-07T12:24:24.042Z,24.64
2019-05-07T12:26:32.122Z,24.89
2019-05-07T12:28:41.880Z,25.42
2019-05-07T12:30:51.629Z,25.75
2019-05-07T12:33:03.718Z,25.12
2019-05-07T12:35:12.708Z,25.71
2019-05-07T12:37:22.426Z,24.34
2019-05-07T12:39:28.522Z,24.29
2019-05-07T12:41:35.071Z,23.70
2019-05-07T12:43:42.340Z,23.86
2019-05-07T12:45:48.827Z,23.92
2019-05-07T12:47:55.578Z,23.57
2019-05-07T12:50:03.151Z,23.57
2019-05-07T12:52:20.242Z,23.89
2019-05-07T12:54:34.720Z,24.05
2019-05-07T12:56:42.517Z,24.21
2019-05-07T12:58:48.804Z,24.67
2019-05-07T13:00:56.615Z,24.00
2019-05-07T13:03:07.963Z,24.66
2019-05-07T13:05:15.662Z,25.67
2019-05-07T13:07:22.030Z,25.19
2019-05-07T13:09:28.481Z,23.88
2019-05-07T13:11:35.337Z,24.11
2019-05-07T13:13:43.322Z,23.51
2019-05-07T13:15:51.812Z,24.34
2019-05-07T13:18:02.814Z,24.94
2019-05-07T13:20:12.058Z,24.14
2019-05-07T13:22:21.952Z,23.50
2019-05-07T13:24:28.841Z,23.50
2019-05-07T13:26:39.621Z,23.99
2019-05-07T13:28:49.123Z,24.24
2019-05-07T13:30:58.102Z,23.56
2019-05-07T13:33:06.445Z,22.08
2019-05-07T13:35:13.801Z,22.20
2019-05-07T13:37:25.009Z,23.15
2019-05-07T13:39:42.992Z,24.22
2019-05-07T13:41:55.882Z,23.02
2019-05-07T13:44:07.222Z,23.09
2019-05-07T13:46:15.530Z,23.93
2019-05-07T13:48:23.705Z,23.43
2019-05-07T13:50:32.536Z,24.14
2019-05-07T13:52:39.422Z,23.65
2019-05-07T13:54:46.242Z,23.40
2019-05-07T13:56:54.142Z,22.33
2019-05-07T13:59:04.980Z,23.29
2019-05-07T14:01:23.082Z,23.25
2019-05-07T14:03:32.910Z,23.65
2019-05-07T14:05:39.800Z,23.56
2019-05-07T14:07:46.449Z,24.55
2019-05-07T14:09:55.008Z,24.51
2019-05-07T14:12:03.909Z,24.36
2019-05-07T14:14:12.141Z,24.77
2019-05-07T14:16:18.301Z,24.99
2019-05-07T14:18:25.796Z,24.69
2019-05-07T14:20:33.138Z,25.14
2019-05-07T14:22:42.456Z,24.75
2019-05-07T14:24:52.890Z,25.43
2019-05-07T14:27:02.007Z,25.50
2019-05-07T14:29:08.722Z,25.52
2019-05-07T14:31:16.888Z,26.18
2019-05-07T14:33:40.589Z,26.01
2019-05-07T14:35:48.885Z,25.51
2019-05-07T14:38:07.022Z,26.37
2019-05-07T14:40:14.382Z,26.35
2019-05-07T14:42:22.690Z,25.79
2019-05-07T14:44:52.636Z,25.29
2019-05-07T14:46:59.022Z,25.48
2019-05-07T14:49:07.102Z,25.65
2019-05-07T14:51:13.682Z,25.65
2019-05-07T14:53:22.234Z,25.39
2019-05-07T14:55:28.314Z,24.69
2019-05-07T14:57:36.242Z,25.26
2019-05-07T14:59:43.452Z,25.64
2019-05-07T15:01:52.089Z,25.83
2019-05-07T15:03:58.662Z,25.81
2019-05-07T15:06:05.202Z,26.12
2019-05-07T15:08:14.296Z,25.22
2019-05-07T15:10:22.200Z,25.17
2019-05-07T15:12:29.882Z,24.05
2019-05-07T15:14:37.242Z,24.36
2019-05-07T15:16:44.222Z,24.42
2019-05-07T15:18:53.071Z,24.49
2019-05-07T15:21:01.891Z,24.22
2019-05-07T15:23:13.363Z,24.53
2019-05-07T15:25:20.198Z,24.58
2019-05-07T15:27:26.842Z,24.17
2019-05-07T15:29:33.482Z,23.96
2019-05-07T15:31:42.365Z,24.18
2019-05-07T15:33:49.444Z,24.54
2019-05-07T15:35:56.322Z,24.73
2019-05-07T15:38:04.622Z,25.20
2019-05-07T15:40:12.576Z,24.96
2019-05-07T15:42:22.292Z,24.44
2019-05-07T15:44:29.582Z,24.34
2019-05-07T15:46:36.270Z,24.26
2019-05-07T15:48:42.786Z,23.98
2019-05-07T15:50:49.330Z,24.33
2019-05-07T15:53:02.170Z,23.61
2019-05-07T15:55:08.910Z,23.26
2019-05-07T15:57:24.550Z,23.88
2019-05-07T15:59:32.587Z,23.93
2019-05-07T16:01:39.304Z,24.74
2019-05-07T16:03:47.843Z,25.37
2019-05-07T16:05:54.542Z,24.60
2019-05-07T16:08:01.723Z,24.60
2019-05-07T16:10:09.603Z,24.75
2019-05-07T16:12:17.762Z,25.35
2019-05-07T16:14:26.741Z,26.36
2019-05-07T16:16:34.830Z,26.63
2019-05-07T16:18:58.900Z,26.31
2019-05-07T16:21:05.363Z,26.55
2019-05-07T16:23:15.724Z,27.06
2019-05-07T16:25:22.345Z,27.37
2019-05-07T16:27:28.882Z,27.21
2019-05-07T16:29:35.950Z,27.33
2019-05-07T16:31:44.161Z,27.04
2019-05-07T16:33:52.124Z,27.31
2019-05-07T16:36:01.974Z,26.95
2019-05-07T16:38:08.122Z,27.51
2019-05-07T16:40:15.684Z,27.25
2019-05-07T16:42:22.410Z,27.49
2019-05-07T16:44:29.463Z,27.58
2019-05-07T16:46:36.199Z,27.56
2019-05-07T16:48:43.958Z,27.23
2019-05-07T16:50:52.299Z,27.64
2019-05-07T16:52:59.291Z,27.60
2019-05-07T16:55:07.843Z,28.17
2019-05-07T16:57:24.583Z,28.10
2019-05-07T16:59:32.339Z,27.82
2019-05-07T17:01:39.663Z,27.65
2019-05-07T17:03:48.185Z,27.80
2019-05-07T17:05:54.730Z,27.50
2019-05-07T17:08:02.479Z,27.99
2019-05-07T17:10:11.719Z,28.33
2019-05-07T17:12:22.035Z,28.63
2019-05-07T17:14:29.403Z,28.62
2019-05-07T17:16:37.526Z,28.83
2019-05-07T17:18:44.202Z,28.79
2019-05-07T17:20:52.267Z,29.14
2019-05-07T17:22:59.303Z,28.92
2019-05-07T17:25:28.282Z,29.19
2019-05-07T17:27:35.890Z,29.32
2019-05-07T17:29:43.013Z,29.52
2019-05-07T17:31:49.903Z,29.69
2019-05-07T17:33:56.639Z,29.84
2019-05-07T17:36:04.651Z,29.90
2019-05-07T17:38:12.945Z,30.15
2019-05-07T17:40:19.806Z,30.16
2019-05-07T17:42:26.842Z,30.46
2019-05-07T17:44:34.982Z,30.71
2019-05-07T17:46:42.907Z,31.29
2019-05-07T17:48:49.822Z,31.49
2019-05-07T17:50:57.982Z,31.69
2019-05-07T17:53:04.983Z,31.89
2019-05-07T17:55:13.052Z,32.16
2019-05-07T17:57:20.091Z,32.46
2019-05-07T17:59:27.130Z,32.60
2019-05-07T18:01:35.582Z,32.79
2019-05-07T18:03:43.365Z,33.09
2019-05-07T18:05:51.833Z,33.38
2019-05-07T18:07:58.502Z,33.50
2019-05-07T18:10:05.595Z,33.72
2019-05-07T18:12:12.929Z,34.13
2019-05-07T18:14:22.818Z,34.22
2019-05-07T18:16:35.370Z,34.18
2019-05-07T18:18:43.245Z,34.33
2019-05-07T18:20:50.229Z,34.47
2019-05-07T18:22:58.603Z,34.44
2019-05-07T18:25:07.569Z,34.64
2019-05-07T18:27:16.057Z,34.95
2019-05-07T18:29:24.862Z,34.91
2019-05-07T18:31:34.709Z,35.08
2019-05-07T18:33:56.529Z,34.97
2019-05-07T18:36:03.662Z,35.37
2019-05-07T18:38:10.462Z,35.41
2019-05-07T18:40:16.970Z,35.49
2019-05-07T18:42:23.642Z,35.47
2019-05-07T18:44:31.582Z,35.52
2019-05-07T18:46:38.523Z,35.66
2019-05-07T18:48:45.104Z,35.76
2019-05-07T18:50:52.261Z,35.97
2019-05-07T18:52:58.969Z,36.17
2019-05-07T18:55:09.034Z,36.58
2019-05-07T18:57:16.008Z,36.82
2019-05-07T18:59:24.625Z,37.17
2019-05-07T19:01:35.291Z,37.70
2019-05-07T19:03:42.288Z,38.10
2019-05-07T19:05:52.020Z,38.50
2019-05-07T19:08:05.371Z,38.98
2019-05-07T19:10:09.055Z,39.65
2019-05-07T19:12:16.675Z,40.19
2019-05-07T19:14:24.175Z,40.77
2019-05-07T19:16:32.513Z,41.17
2019-05-07T19:18:39.501Z,41.81
2019-05-07T19:20:49.701Z,42.24
2019-05-07T19:22:57.037Z,43.00
2019-05-07T19:25:07.130Z,43.50
2019-05-07T19:27:15.546Z,43.84
2019-05-07T19:29:23.577Z,44.29
2019-05-07T19:31:33.967Z,44.63
2019-05-07T19:33:42.050Z,44.97
2019-05-07T19:35:52.779Z,45.45
2019-05-07T19:38:02.931Z,45.79
2019-05-07T19:40:12.537Z,46.17
2019-05-07T19:42:21.161Z,46.86
2019-05-07T19:44:29.730Z,47.21
2019-05-07T19:46:36.708Z,47.39
2019-05-07T19:48:45.615Z,47.86
2019-05-07T19:50:52.879Z,48.04
2019-05-07T19:53:00.025Z,48.48
2019-05-07T19:55:10.503Z,48.65
2019-05-07T19:57:22.995Z,48.90
2019-05-07T19:59:32.544Z,49.21
2019-05-07T20:01:42.643Z,49.58
2019-05-07T20:03:53.223Z,49.98
2019-05-07T20:06:04.463Z,50.87
2019-05-07T20:08:12.730Z,51.13
2019-05-07T20:10:25.356Z,51.32
2019-05-07T20:12:36.712Z,51.87
2019-05-07T20:14:46.680Z,52.26
2019-05-07T20:16:57.140Z,52.79
2019-05-07T20:19:07.194Z,53.43
2019-05-07T20:21:16.943Z,53.56
2019-05-07T20:23:24.006Z,53.71
2019-05-07T20:25:33.324Z,53.92
2019-05-07T20:27:43.458Z,54.12
2019-05-07T20:29:52.232Z,54.22
2019-05-07T20:31:59.806Z,54.41
2019-05-07T20:34:07.965Z,54.91
2019-05-07T20:36:16.650Z,55.01
2019-05-07T20:38:26.730Z,54.93
2019-05-07T20:40:36.145Z,54.78
2019-05-07T20:42:43.306Z,54.62
2019-05-07T20:44:51.972Z,54.63
2019-05-07T20:47:01.690Z,54.75
2019-05-07T20:49:09.487Z,55.08
2019-05-07T20:51:17.035Z,55.10
2019-05-07T20:53:43.495Z,55.38
2019-05-07T20:55:54.135Z,55.36
2019-05-07T20:58:03.465Z,55.35
2019-05-07T21:00:15.253Z,54.64
2019-05-07T21:02:23.158Z,54.27
2019-05-07T21:04:32.840Z,56.51
2019-05-07T21:06:39.958Z,58.75
2019-05-07T21:08:47.085Z,60.24
2019-05-07T21:10:53.957Z,61.10
2019-05-07T21:13:02.027Z,62.42
2019-05-07T21:15:09.225Z,62.76
2019-05-07T21:17:16.079Z,63.30
2019-05-07T21:19:23.716Z,63.15
2019-05-07T21:21:32.549Z,63.13
2019-05-07T21:23:38.974Z,63.30
2019-05-07T21:25:46.220Z,63.20
2019-05-07T21:27:53.200Z,62.18
2019-05-07T21:30:02.330Z,63.22
2019-05-07T21:32:08.267Z,65.27
2019-05-07T21:34:16.410Z,66.11
2019-05-07T21:36:23.293Z,66.04
2019-05-07T21:38:30.025Z,65.89
2019-05-07T21:40:38.287Z,66.16
2019-05-07T21:42:46.611Z,65.68
2019-05-07T21:44:53.483Z,65.65
2019-05-07T21:47:01.737Z,65.65
2019-05-07T21:49:07.959Z,65.53
2019-05-07T21:51:14.526Z,65.68
2019-05-07T21:53:34.402Z,65.36
2019-05-07T21:56:02.524Z,66.50
2019-05-07T21:58:16.789Z,67.07
2019-05-07T22:00:32.681Z,67.57
2019-05-07T22:02:42.339Z,67.68
2019-05-07T22:04:48.890Z,67.72
2019-05-07T22:06:56.388Z,67.90
2019-05-07T22:09:03.566Z,67.64
2019-05-07T22:11:13.403Z,68.38
2019-05-07T22:13:22.015Z,68.53
2019-05-07T22:15:28.085Z,68.53
2019-05-07T22:17:34.547Z,68.77
2019-05-07T22:19:42.666Z,68.37
2019-05-07T22:21:52.169Z,68.38
2019-05-07T22:23:58.346Z,68.05
2019-05-07T22:26:19.214Z,67.77
2019-05-07T22:28:13.452Z,67.29
2019-05-07T22:30:34.116Z,67.06
2019-05-07T22:32:55.569Z,67.17
2019-05-07T22:35:07.439Z,67.05
2019-05-07T22:37:15.850Z,66.95
2019-05-07T22:39:29.814Z,67.24
2019-05-07T22:41:39.585Z,67.03
2019-05-07T22:43:46.845Z,66.89
2019-05-07T22:45:53.522Z,66.80
2019-05-07T22:48:00.162Z,65.97
2019-05-07T22:50:07.662Z,65.38
2019-05-07T22:52:14.107Z,63.86
2019-05-07T22:54:22.556Z,64.28
2019-05-07T22:56:37.323Z,63.93
2019-05-07T22:58:56.541Z,63.61
2019-05-07T23:01:05.275Z,63.55
2019-05-07T23:03:12.483Z,63.44
2019-05-07T23:05:19.332Z,63.54
2019-05-07T23:07:26.502Z,63.62
2019-05-07T23:09:33.065Z,63.61
2019-05-07T23:11:40.872Z,63.41
2019-05-07T23:13:48.942Z,63.08
2019-05-07T23:15:55.651Z,62.85
2019-05-07T23:18:04.092Z,62.68
2019-05-07T23:20:10.223Z,62.64
2019-05-07T23:22:16.998Z,62.57
2019-05-07T23:24:25.916Z,62.97
2019-05-07T23:28:44.176Z,63.63
2019-05-07T23:30:51.940Z,63.76
2019-05-07T23:32:58.331Z,65.01
2019-05-07T23:35:05.113Z,65.65
2019-05-07T23:37:11.841Z,66.37
2019-05-07T23:39:20.085Z,66.45
2019-05-07T23:41:28.082Z,67.41
2019-05-07T23:43:34.643Z,67.21
2019-05-07T23:45:42.078Z,67.44
2019-05-07T23:47:48.502Z,68.15
2019-05-07T23:49:54.944Z,69.50
2019-05-07T23:52:02.416Z,69.88
2019-05-07T23:54:12.154Z,69.44
2019-05-07T23:56:22.045Z,69.45
2019-05-07T23:58:32.661Z,69.45
